Terminal Aerodrome Forecast
Issued by NWS

Home | Current Version | Previous Version | Text Only | Print | Product List | Glossary On
Versions: 1 2 3 4 5 6 7 8 9 10 11 12 13 14 15 16 17 18 19 20
000
FTUS43 KILX 061100
TAFCMI
TAF
KCMI 061133Z 0612/0712 18006KT P6SM SCT120
     FM061600 19016G22KT P6SM BKN100
     FM070000 21012KT P6SM SCT250=

USA.gov is the U.S. government's official web portal to all federal, state and local government web resources and services.